Time;durP1;ratioP1;P1;durP2;ratioP2;P2;SDS_P1;SDS_P2;PMS_P1;PMS_P2;Temp;Humidity;BMP_temperature;BMP_pressure;BME280_temperature;BME280_humidity;BME280_pressure;Samples;Min_cycle;Max_cycle;Signal;HPM_P1;HPM_P2
2023/02/28 05:30:35;;;;;;;9.50;7.05;;;1.90;66.30;;;;;;6100075;23;20025;-85
2023/02/28 05:33:04;;;;;;;9.13;5.53;;;2.00;66.10;;;;;;6125168;23;20026;-77
2023/02/28 05:35:30;;;;;;;11.52;6.07;;;2.00;66.30;;;;;;6127525;23;20009;-80
2023/02/28 05:37:55;;;;;;;18.45;8.02;;;2.00;66.20;;;;;;6102267;23;20006;-79
2023/02/28 05:40:21;;;;;;;6.85;5.97;;;2.00;66.20;;;;;;6128691;23;20009;-79
2023/02/28 05:42:47;;;;;;;10.02;6.68;;;2.00;66.20;;;;;;6128729;23;20008;-79
2023/02/28 05:45:13;;;;;;;14.05;6.85;;;2.00;66.20;;;;;;6128435;23;20081;-79
2023/02/28 05:47:38;;;;;;;9.27;6.88;;;2.00;65.90;;;;;;6102276;23;20009;-78
2023/02/28 05:50:05;;;;;;;6.53;5.93;;;1.90;66.20;;;;;;6128465;23;20312;-81
2023/02/28 05:52:31;;;;;;;7.57;5.93;;;1.90;66.30;;;;;;6128829;23;20032;-80
2023/02/28 05:54:56;;;;;;;10.50;7.10;;;1.90;66.20;;;;;;6128297;23;20002;-82
2023/02/28 05:57:23;;;;;;;11.77;6.88;;;1.90;66.10;;;;;;6102412;23;20009;-80
2023/02/28 05:59:49;;;;;;;7.80;6.35;;;1.70;66.50;;;;;;6101918;23;20385;-78
2023/02/28 06:02:16;;;;;;;11.65;6.65;;;1.80;66.30;;;;;;6126409;23;19998;-78
2023/02/28 06:04:42;;;;;;;5.93;4.82;;;1.80;66.40;;;;;;6128565;23;20430;-78
2023/02/28 06:07:11;;;;;;;8.50;6.65;;;1.70;66.30;;;;;;6128575;23;20375;-79
2023/02/28 06:09:37;;;;;;;10.38;6.43;;;1.70;66.40;;;;;;6102709;23;20123;-77
2023/02/28 06:12:06;;;;;;;11.80;7.68;;;1.70;66.60;;;;;;6102648;23;20316;-77
2023/02/28 06:14:33;;;;;;;15.70;9.20;;;1.60;66.70;;;;;;6128877;23;19998;-77
2023/02/28 06:17:00;;;;;;;8.35;7.30;;;1.60;66.70;;;;;;6102440;23;20009;-77
2023/02/28 06:19:26;;;;;;;11.85;8.52;;;1.60;66.80;;;;;;6128734;23;20002;-78
2023/02/28 06:21:53;;;;;;;11.07;7.25;;;1.60;66.90;;;;;;6129051;23;20033;-80
2023/02/28 06:24:24;;;;;;;11.98;6.80;;;1.60;66.70;;;;;;6103695;23;20009;-84
2023/02/28 06:26:50;;;;;;;12.88;7.60;;;1.50;66.90;;;;;;6080173;23;20017;-82
2023/02/28 06:29:18;;;;;;;10.55;6.90;;;1.50;67.00;;;;;;6102766;23;20018;-81
2023/02/28 06:31:47;;;;;;;15.43;8.73;;;1.40;67.30;;;;;;6127997;23;20029;-81
2023/02/28 06:34:14;;;;;;;10.52;7.45;;;1.40;67.30;;;;;;6127181;23;20033;-81
2023/02/28 06:36:41;;;;;;;12.20;8.13;;;1.50;67.10;;;;;;6128273;23;20013;-81
2023/02/28 06:39:07;;;;;;;12.45;8.80;;;1.50;67.10;;;;;;6103858;23;20441;-81
2023/02/28 06:41:38;;;;;;;22.50;7.78;;;1.50;67.10;;;;;;6105374;23;20034;-81
2023/02/28 06:44:17;;;;;;;16.13;8.90;;;1.50;67.10;;;;;;6131168;23;20030;-81
2023/02/28 06:46:44;;;;;;;15.60;8.80;;;1.60;66.80;;;;;;6105063;23;20009;-81
2023/02/28 06:49:11;;;;;;;12.27;7.63;;;1.60;66.60;;;;;;6131054;23;20037;-80
2023/02/28 06:51:41;;;;;;;11.13;7.85;;;1.70;66.40;;;;;;6130618;23;20036;-79
2023/02/28 06:54:10;;;;;;;11.82;7.85;;;1.60;66.60;;;;;;6131491;23;20454;-79
2023/02/28 06:56:36;;;;;;;13.60;8.15;;;1.70;66.50;;;;;;6130932;23;20081;-79
2023/02/28 06:59:03;;;;;;;11.60;8.55;;;1.70;66.40;;;;;;6104572;23;20037;-80
2023/02/28 07:01:31;;;;;;;13.13;8.73;;;1.70;66.40;;;;;;6130388;23;20057;-79
2023/02/28 07:03:58;;;;;;;15.00;8.73;;;1.70;66.20;;;;;;6104552;23;20068;-79
2023/02/28 07:06:24;;;;;;;17.80;8.85;;;1.70;66.00;;;;;;6104365;23;20010;-79
2023/02/28 07:08:54;;;;;;;9.80;6.75;;;1.70;66.10;;;;;;6130585;23;20006;-79
2023/02/28 07:11:22;;;;;;;18.13;9.07;;;1.70;66.20;;;;;;6104404;23;20010;-81
2023/02/28 07:13:49;;;;;;;18.65;9.77;;;1.70;66.00;;;;;;6130728;23;19998;-79
2023/02/28 07:16:14;;;;;;;14.05;10.70;;;1.70;66.10;;;;;;6130567;23;20057;-79
2023/02/28 07:18:40;;;;;;;14.27;9.75;;;1.70;66.10;;;;;;6130279;23;20006;-80
2023/02/28 07:21:08;;;;;;;11.65;8.20;;;1.70;66.20;;;;;;6130372;23;20013;-80
2023/02/28 07:23:34;;;;;;;14.65;9.40;;;1.70;66.30;;;;;;6130660;23;20010;-80
2023/02/28 07:26:00;;;;;;;16.95;10.93;;;1.70;66.20;;;;;;6104309;23;20010;-80
2023/02/28 07:28:25;;;;;;;19.02;9.98;;;1.70;66.20;;;;;;6130337;23;20060;-80
2023/02/28 07:30:51;;;;;;;16.13;9.70;;;1.70;66.30;;;;;;6107973;23;20020;-80
2023/02/28 07:33:17;;;;;;;17.35;10.23;;;1.70;66.40;;;;;;6130318;23;19998;-80
2023/02/28 07:35:43;;;;;;;18.20;9.43;;;1.70;66.50;;;;;;6129082;23;20458;-80
2023/02/28 07:38:09;;;;;;;16.83;10.63;;;2.20;66.00;;;;;;6130448;23;20002;-80
2023/02/28 07:40:35;;;;;;;15.77;9.65;;;2.80;64.70;;;;;;6130162;23;20006;-80
2023/02/28 07:43:03;;;;;;;20.40;10.48;;;3.80;62.50;;;;;;6130544;23;20442;-80
2023/02/28 07:45:29;;;;;;;13.80;8.25;;;5.10;59.00;;;;;;6128402;23;20009;-80
2023/02/28 07:47:55;;;;;;;16.05;10.75;;;5.90;56.10;;;;;;6130367;23;20032;-81
2023/02/28 07:50:21;;;;;;;24.45;13.20;;;6.30;54.70;;;;;;6129912;23;20511;-81
2023/02/28 07:52:47;;;;;;;22.90;13.00;;;7.50;51.60;;;;;;6130614;23;20002;-81
2023/02/28 07:55:13;;;;;;;19.27;10.95;;;8.40;48.90;;;;;;6130243;23;20109;-81
2023/02/28 07:57:39;;;;;;;17.50;10.63;;;9.20;47.90;;;;;;6130668;23;20346;-81
2023/02/28 08:00:07;;;;;;;18.13;11.75;;;9.50;46.00;;;;;;6130316;23;20509;-80
2023/02/28 08:02:33;;;;;;;15.63;9.85;;;9.70;45.00;;;;;;6129966;23;20002;-81
2023/02/28 08:04:59;;;;;;;17.58;10.38;;;9.50;44.40;;;;;;6130545;23;20036;-81
2023/02/28 08:07:25;;;;;;;14.52;10.10;;;9.20;44.90;;;;;;6129872;23;20002;-80
2023/02/28 08:09:51;;;;;;;16.88;11.18;;;9.00;45.40;;;;;;6130252;23;20339;-80
2023/02/28 08:12:16;;;;;;;18.20;11.75;;;8.70;46.10;;;;;;6130116;23;20447;-81
2023/02/28 08:14:42;;;;;;;17.13;10.60;;;8.80;45.70;;;;;;6130312;23;20080;-81
2023/02/28 08:17:09;;;;;;;16.80;11.48;;;8.90;45.50;;;;;;6129948;23;20034;-81
2023/02/28 08:19:35;;;;;;;17.75;11.15;;;9.00;45.10;;;;;;6128443;23;20485;-80
2023/02/28 08:22:01;;;;;;;19.88;11.85;;;9.00;44.80;;;;;;6130323;23;20010;-80
2023/02/28 08:24:26;;;;;;;19.10;12.80;;;9.10;44.80;;;;;;6130150;23;20002;-80
2023/02/28 08:26:52;;;;;;;19.98;13.52;;;8.60;45.10;;;;;;6129843;23;20006;-80
2023/02/28 08:29:17;;;;;;;19.00;12.43;;;8.60;45.90;;;;;;6129854;23;20081;-80
2023/02/28 08:31:43;;;;;;;17.70;10.45;;;9.10;45.60;;;;;;6128419;23;20018;-80
2023/02/28 08:34:12;;;;;;;14.90;10.50;;;9.40;44.50;;;;;;6129109;23;20002;-80
2023/02/28 08:36:38;;;;;;;15.35;11.50;;;9.90;44.00;;;;;;6128225;23;20008;-80
2023/02/28 08:39:05;;;;;;;16.90;10.88;;;9.70;43.80;;;;;;6130029;23;20020;-81
2023/02/28 08:41:31;;;;;;;17.50;11.27;;;10.00;43.40;;;;;;6129995;23;20006;-81
2023/02/28 08:43:57;;;;;;;16.08;10.70;;;10.20;43.00;;;;;;6130163;23;20008;-81
2023/02/28 08:46:22;;;;;;;18.63;11.82;;;10.30;42.20;;;;;;6129932;23;20002;-81
2023/02/28 08:48:53;;;;;;;18.58;11.60;;;10.70;42.10;;;;;;6127844;23;20042;-80
2023/02/28 08:51:21;;;;;;;14.40;10.88;;;11.10;41.30;;;;;;6129820;23;20080;-81
2023/02/28 08:53:49;;;;;;;15.55;11.95;;;11.80;40.30;;;;;;6127895;23;20002;-81
2023/02/28 08:56:16;;;;;;;17.70;11.25;;;12.30;39.30;;;;;;6129954;23;20435;-81
2023/02/28 08:58:42;;;;;;;15.38;10.82;;;12.50;38.30;;;;;;6129781;23;20002;-80
2023/02/28 09:01:20;;;;;;;14.23;10.05;;;12.50;38.20;;;;;;6129157;23;20056;-81
2023/02/28 09:03:47;;;;;;;17.35;11.70;;;12.50;37.80;;;;;;6128118;23;20014;-80
2023/02/28 09:06:14;;;;;;;15.60;10.85;;;12.50;38.30;;;;;;6129881;23;20089;-81
2023/02/28 09:08:41;;;;;;;15.20;10.02;;;12.70;37.70;;;;;;6127849;23;20009;-81
2023/02/28 09:11:07;;;;;;;13.27;8.95;;;12.90;37.10;;;;;;6129625;23;20088;-81
2023/02/28 09:13:33;;;;;;;16.33;10.05;;;12.80;36.40;;;;;;6127956;23;20002;-81
2023/02/28 09:16:01;;;;;;;14.68;10.10;;;12.50;36.30;;;;;;6129173;23;20013;-81
2023/02/28 09:18:27;;;;;;;11.73;8.77;;;12.30;37.60;;;;;;6127820;23;20006;-80
2023/02/28 09:20:53;;;;;;;13.18;9.18;;;12.10;36.80;;;;;;6129632;23;20002;-80
2023/02/28 09:23:20;;;;;;;15.18;10.65;;;12.20;36.80;;;;;;6129283;23;20006;-80
2023/02/28 09:25:51;;;;;;;11.93;8.40;;;12.50;37.10;;;;;;6129424;23;20753;-81
2023/02/28 09:28:17;;;;;;;12.50;8.82;;;12.90;35.80;;;;;;6127653;23;20037;-80
2023/02/28 09:30:49;;;;;;;10.63;8.13;;;13.10;34.90;;;;;;6128816;23;20047;-80
2023/02/28 09:33:15;;;;;;;12.05;9.07;;;13.40;34.40;;;;;;6129448;23;20002;-81
2023/02/28 09:35:42;;;;;;;10.52;8.25;;;14.00;33.90;;;;;;6103388;23;20017;-81
2023/02/28 09:38:09;;;;;;;10.00;7.45;;;14.30;32.00;;;;;;6129432;23;20085;-81
2023/02/28 09:40:49;;;;;;;9.48;7.63;;;14.60;31.40;;;;;;6129763;23;20001;-81
2023/02/28 09:43:17;;;;;;;8.27;6.95;;;15.10;31.20;;;;;;6129204;23;20016;-80
2023/02/28 09:45:48;;;;;;;9.23;7.22;;;15.50;30.70;;;;;;6129289;23;20561;-81
2023/02/28 09:48:22;;;;;;;8.70;7.38;;;15.80;29.30;;;;;;6128994;23;20009;-80
2023/02/28 09:50:50;;;;;;;11.40;6.85;;;15.80;29.60;;;;;;6129517;23;20021;-80
2023/02/28 09:53:39;;;;;;;8.18;6.82;;;16.00;29.10;;;;;;6129665;23;20013;-81
2023/02/28 09:56:09;;;;;;;8.68;6.50;;;16.20;28.50;;;;;;6129174;23;19998;-80
2023/02/28 09:59:03;;;;;;;11.70;7.88;;;16.20;28.80;;;;;;6103278;23;20009;-81
2023/02/28 10:01:39;;;;;;;8.43;6.32;;;16.10;28.50;;;;;;6103066;23;20542;-81
2023/02/28 10:04:42;;;;;;;7.97;5.40;;;15.80;28.40;;;;;;6129081;23;20367;-81
2023/02/28 10:07:19;;;;;;;9.40;8.05;;;15.30;28.00;;;;;;6103187;23;20121;-81
2023/02/28 10:09:48;;;;;;;8.48;6.97;;;14.90;29.20;;;;;;6102691;23;20113;-81
2023/02/28 10:12:17;;;;;;;8.55;6.80;;;14.70;30.30;;;;;;6128673;23;20005;-81
2023/02/28 10:14:47;;;;;;;8.57;6.50;;;14.50;29.90;;;;;;6129451;23;20100;-81
2023/02/28 10:17:21;;;;;;;9.52;6.32;;;13.90;30.20;;;;;;6103153;23;20002;-81
2023/02/28 10:19:49;;;;;;;9.40;6.90;;;13.50;30.70;;;;;;6103007;23;20021;-81
2023/02/28 10:22:23;;;;;;;7.95;4.93;;;13.10;31.30;;;;;;6129195;23;20042;-81
2023/02/28 10:24:51;;;;;;;10.57;6.70;;;12.80;31.80;;;;;;6128843;23;20068;-80
2023/02/28 10:27:23;;;;;;;8.68;5.68;;;12.10;32.30;;;;;;6102674;23;20097;-80
2023/02/28 10:30:00;;;;;;;8.05;5.07;;;11.40;32.80;;;;;;6128905;23;20010;-81
2023/02/28 10:32:33;;;;;;;9.98;5.97;;;10.90;34.10;;;;;;6125574;23;20033;-81
2023/02/28 10:35:01;;;;;;;10.35;6.13;;;10.70;35.30;;;;;;6127147;23;20061;-80
2023/02/28 10:37:28;;;;;;;9.98;5.47;;;10.40;36.20;;;;;;6127605;23;20034;-80
2023/02/28 10:39:54;;;;;;;8.68;5.45;;;10.00;36.70;;;;;;6127195;23;20009;-80
2023/02/28 10:42:28;;;;;;;6.22;4.35;;;9.70;37.30;;;;;;6127276;23;20451;-80
2023/02/28 10:45:10;;;;;;;7.32;5.00;;;9.50;36.60;;;;;;6129202;23;20053;-79
2023/02/28 10:47:55;;;;;;;6.78;4.57;;;9.30;36.70;;;;;;6128408;23;20056;-80
2023/02/28 10:50:50;;;;;;;5.07;3.50;;;9.00;36.90;;;;;;6127492;23;20017;-79
2023/02/28 10:53:23;;;;;;;5.57;3.95;;;8.80;36.90;;;;;;6121137;23;20025;-79
2023/02/28 10:56:03;;;;;;;8.93;3.90;;;8.80;38.10;;;;;;6128985;23;20339;-80
2023/02/28 10:58:45;;;;;;;7.63;5.07;;;8.80;37.80;;;;;;6128660;23;20006;-80
2023/02/28 11:01:39;;;;;;;5.50;3.55;;;8.80;37.40;;;;;;6128459;23;20009;-80
2023/02/28 11:04:29;;;;;;;7.82;4.30;;;8.70;38.20;;;;;;6106377;23;20347;-80
2023/02/28 11:07:21;;;;;;;7.72;3.97;;;8.70;38.00;;;;;;6127460;23;20017;-80
2023/02/28 11:09:52;;;;;;;6.18;3.85;;;8.70;38.10;;;;;;6127000;23;20046;-79
2023/02/28 11:12:29;;;;;;;7.22;4.32;;;8.70;38.10;;;;;;6128618;23;20445;-80
2023/02/28 11:14:59;;;;;;;4.72;3.03;;;8.70;38.00;;;;;;6129145;23;20026;-80
2023/02/28 11:17:28;;;;;;;4.25;3.72;;;8.60;37.90;;;;;;6128601;23;20032;-80
2023/02/28 11:20:04;;;;;;;3.40;2.80;;;8.50;38.10;;;;;;6128854;23;20005;-80
2023/02/28 11:22:37;;;;;;;4.00;3.45;;;8.50;37.80;;;;;;6128454;23;20013;-80
2023/02/28 11:25:10;;;;;;;6.38;3.97;;;8.50;37.90;;;;;;6128553;23;20006;-79
2023/02/28 11:28:06;;;;;;;4.50;3.75;;;8.50;38.10;;;;;;6130279;23;20358;-80
2023/02/28 11:30:40;;;;;;;7.05;5.82;;;8.60;38.60;;;;;;6128710;23;20052;-80
2023/02/28 11:33:32;;;;;;;7.40;4.78;;;8.50;38.10;;;;;;6104443;23;20014;-80
2023/02/28 11:36:08;;;;;;;6.28;3.63;;;8.60;38.30;;;;;;6130319;23;20006;-80
2023/02/28 11:38:35;;;;;;;7.03;4.07;;;8.60;38.30;;;;;;6130765;23;20005;-80
2023/02/28 11:41:21;;;;;;;5.85;3.40;;;8.60;38.60;;;;;;6130657;23;20016;-80
2023/02/28 11:44:15;;;;;;;5.13;3.42;;;8.70;38.40;;;;;;6130225;23;20002;-80
2023/02/28 11:46:49;;;;;;;4.95;3.90;;;8.70;38.20;;;;;;6104344;23;20042;-80
2023/02/28 11:49:43;;;;;;;6.50;4.07;;;8.70;38.80;;;;;;6103887;23;20010;-80
2023/02/28 11:52:30;;;;;;;6.05;3.92;;;8.70;38.50;;;;;;6130270;23;20334;-80
2023/02/28 11:55:27;;;;;;;5.35;3.08;;;8.70;38.20;;;;;;6104512;23;20030;-80
2023/02/28 11:58:22;;;;;;;6.13;4.30;;;8.70;38.80;;;;;;6108001;23;20013;-80
2023/02/28 12:01:05;;;;;;;6.05;3.35;;;8.70;39.10;;;;;;6130328;23;20331;-80
2023/02/28 12:03:45;;;;;;;4.65;3.88;;;8.70;38.80;;;;;;6104141;23;20332;-80
2023/02/28 12:06:30;;;;;;;5.53;2.78;;;8.70;38.80;;;;;;6130047;23;20346;-79
2023/02/28 12:09:18;;;;;;;6.40;3.47;;;8.90;39.00;;;;;;6104680;23;20017;-80
2023/02/28 12:11:58;;;;;;;4.00;2.78;;;9.00;39.20;;;;;;6104205;23;20002;-80
2023/02/28 12:14:39;;;;;;;4.63;4.00;;;8.90;38.90;;;;;;6129959;23;20005;-80
2023/02/28 12:17:22;;;;;;;4.82;4.00;;;9.00;39.10;;;;;;6130195;23;20002;-80
2023/02/28 12:20:15;;;;;;;4.88;3.40;;;9.00;39.40;;;;;;6130046;23;20002;-80
2023/02/28 12:22:55;;;;;;;6.72;3.70;;;9.00;39.20;;;;;;6129781;23;20029;-80
2023/02/28 12:25:35;;;;;;;4.43;3.15;;;8.90;39.30;;;;;;6130321;23;20013;-80
2023/02/28 12:28:02;;;;;;;5.97;3.10;;;8.90;39.40;;;;;;6130118;23;20009;-80
2023/02/28 12:30:34;;;;;;;4.10;2.85;;;9.00;39.80;;;;;;6129336;23;20343;-80
2023/02/28 12:33:10;;;;;;;5.70;3.45;;;9.00;39.80;;;;;;6130014;23;20005;-80
2023/02/28 12:35:48;;;;;;;6.18;4.13;;;9.20;40.40;;;;;;6129250;23;20041;-80
2023/02/28 12:38:29;;;;;;;4.88;2.88;;;9.20;39.20;;;;;;6129881;23;20005;-80
2023/02/28 12:41:01;;;;;;;5.95;3.25;;;9.30;39.60;;;;;;6104080;23;20016;-80
2023/02/28 12:43:36;;;;;;;5.40;3.53;;;9.50;39.90;;;;;;6130017;23;20012;-80
2023/02/28 12:46:10;;;;;;;4.25;3.15;;;9.50;39.50;;;;;;6103200;23;20006;-80
2023/02/28 12:48:50;;;;;;;3.47;2.38;;;9.30;39.50;;;;;;6130046;23;20002;-80
2023/02/28 12:51:17;;;;;;;4.68;2.70;;;9.00;40.50;;;;;;6129617;23;20002;-81
2023/02/28 12:54:12;;;;;;;5.10;3.35;;;8.90;41.30;;;;;;6103911;23;20006;-80
2023/02/28 12:56:59;;;;;;;4.38;3.42;;;8.90;41.90;;;;;;6129862;23;20026;-80
2023/02/28 12:59:36;;;;;;;4.75;2.97;;;9.00;41.40;;;;;;6103806;23;20010;-80
2023/02/28 13:02:23;;;;;;;4.80;2.63;;;9.00;42.00;;;;;;6129420;23;20447;-80
2023/02/28 13:05:08;;;;;;;4.00;3.25;;;8.90;41.60;;;;;;6129713;23;20705;-80
2023/02/28 13:07:51;;;;;;;6.15;3.20;;;8.70;42.10;;;;;;6129737;23;20001;-80
2023/02/28 13:10:18;;;;;;;6.55;3.35;;;8.70;42.10;;;;;;6129298;23;20002;-80
2023/02/28 13:12:53;;;;;;;7.68;3.30;;;8.70;42.30;;;;;;6129715;23;20351;-80
2023/02/28 13:15:21;;;;;;;4.32;3.30;;;8.80;42.50;;;;;;6129321;23;19998;-81
2023/02/28 13:17:53;;;;;;;5.90;3.83;;;9.00;41.90;;;;;;6103552;23;20410;-80
2023/02/28 13:20:20;;;;;;;5.45;3.63;;;9.10;42.10;;;;;;6129677;23;20010;-81
2023/02/28 13:22:48;;;;;;;6.22;3.85;;;9.10;42.50;;;;;;6103299;23;20089;-81
2023/02/28 13:25:40;;;;;;;7.68;4.28;;;9.20;42.10;;;;;;6129550;23;19998;-80
2023/02/28 13:28:11;;;;;;;3.65;3.15;;;9.60;41.80;;;;;;6074045;23;20010;-80
2023/02/28 13:30:52;;;;;;;4.10;3.15;;;9.70;41.50;;;;;;6128880;23;20092;-80
2023/02/28 13:33:30;;;;;;;2.92;2.58;;;9.70;41.20;;;;;;6129160;23;20077;-80
2023/02/28 13:36:08;;;;;;;6.05;3.15;;;9.80;41.40;;;;;;6103152;23;20005;-80
2023/02/28 13:38:48;;;;;;;6.28;2.90;;;9.80;41.00;;;;;;6129447;23;20012;-81
2023/02/28 13:41:29;;;;;;;5.85;3.20;;;9.90;41.40;;;;;;6103527;23;20033;-81
2023/02/28 13:44:05;;;;;;;4.57;3.47;;;9.80;41.70;;;;;;6129160;23;20013;-80
2023/02/28 13:46:50;;;;;;;7.20;3.72;;;9.60;42.00;;;;;;6129306;23;20010;-80
2023/02/28 13:49:31;;;;;;;8.82;4.22;;;9.40;42.20;;;;;;6129000;23;20005;-81
2023/02/28 13:52:23;;;;;;;13.13;6.43;;;9.20;42.90;;;;;;6103357;23;20006;-80
2023/02/28 13:55:15;;;;;;;8.32;5.00;;;9.20;43.40;;;;;;6123071;23;20455;-81
2023/02/28 13:57:52;;;;;;;6.53;3.03;;;9.20;43.50;;;;;;6129427;23;20025;-81
2023/02/28 14:00:27;;;;;;;3.45;2.75;;;9.00;44.00;;;;;;6128918;23;20004;-80
2023/02/28 14:03:26;;;;;;;6.43;3.95;;;8.90;44.50;;;;;;6129285;23;20002;-80
2023/02/28 14:06:46;;;;;;;4.80;3.08;;;8.90;45.10;;;;;;6103143;23;20006;-81
2023/02/28 14:09:25;;;;;;;9.77;6.20;;;8.80;45.80;;;;;;5982720;24;20457;-80
2023/02/28 14:11:52;;;;;;;8.10;4.23;;;8.80;46.00;;;;;;6086991;23;20002;-80
2023/02/28 14:14:36;;;;;;;6.75;3.97;;;8.70;46.40;;;;;;6129259;23;20009;-81
2023/02/28 14:17:04;;;;;;;4.78;3.45;;;8.70;46.40;;;;;;6129184;23;20077;-80
2023/02/28 14:19:32;;;;;;;3.42;2.78;;;8.80;46.90;;;;;;6128670;23;20035;-80
2023/02/28 14:22:34;;;;;;;5.68;4.30;;;8.70;47.00;;;;;;6129113;23;20013;-81
2023/02/28 14:25:25;;;;;;;4.22;3.83;;;8.70;46.70;;;;;;6129211;23;20339;-81
2023/02/28 14:27:53;;;;;;;;;;;8.70;47.00;;;;;;6129326;23;20435;-80
2023/02/28 14:30:56;;;;;;;7.18;3.88;;;8.70;47.30;;;;;;6128886;23;20346;-81
2023/02/28 14:33:26;;;;;;;5.63;3.05;;;8.50;47.80;;;;;;6102913;23;20010;-81
2023/02/28 14:36:13;;;;;;;4.95;4.05;;;8.50;48.60;;;;;;6129502;23;20070;-81
2023/02/28 14:38:45;;;;;;;5.90;4.25;;;8.50;49.40;;;;;;6102786;23;20008;-81
2023/02/28 14:41:21;;;;;;;5.15;3.97;;;8.40;50.70;;;;;;6103395;23;20041;-81
2023/02/28 14:43:53;;;;;;;5.50;4.10;;;8.30;52.00;;;;;;6129423;23;19998;-81
2023/02/28 14:46:20;;;;;;;6.57;4.10;;;8.30;52.60;;;;;;6128950;23;20006;-80
2023/02/28 14:48:47;;;;;;;6.43;3.85;;;8.20;53.30;;;;;;6102979;23;20013;-81
2023/02/28 14:51:21;;;;;;;4.38;3.47;;;8.20;53.10;;;;;;6129214;23;20348;-81
2023/02/28 14:53:51;;;;;;;6.93;5.30;;;8.30;53.40;;;;;;6128823;23;20057;-81
2023/02/28 14:56:27;;;;;;;7.47;5.22;;;8.30;52.90;;;;;;6129078;23;20431;-81
2023/02/28 14:58:55;;;;;;;6.55;4.45;;;8.30;53.10;;;;;;6129041;23;20039;-81
2023/02/28 15:01:22;;;;;;;7.80;4.70;;;8.40;53.10;;;;;;6104755;23;20461;-81
2023/02/28 15:03:58;;;;;;;6.13;4.55;;;8.40;53.10;;;;;;6104471;23;20093;-81
2023/02/28 15:06:24;;;;;;;6.15;4.57;;;8.50;52.80;;;;;;6130840;23;20002;-81
2023/02/28 15:09:25;;;;;;;13.63;5.72;;;8.60;52.90;;;;;;6104542;23;20033;-81
2023/02/28 15:11:50;;;;;;;4.70;3.78;;;8.40;53.10;;;;;;6130871;23;20434;-81
2023/02/28 15:14:21;;;;;;;10.15;6.15;;;8.40;53.50;;;;;;6105020;23;20014;-81
2023/02/28 15:16:55;;;;;;;7.13;5.22;;;8.30;54.00;;;;;;6130733;23;20339;-81
2023/02/28 15:19:29;;;;;;;7.72;5.00;;;8.30;54.70;;;;;;6130423;23;20012;-81
2023/02/28 15:22:11;;;;;;;9.02;5.88;;;8.30;55.00;;;;;;6130883;23;20073;-81
2023/02/28 15:24:45;;;;;;;9.40;5.15;;;8.20;55.40;;;;;;6130857;23;20012;-82
2023/02/28 15:27:20;;;;;;;6.60;5.35;;;8.20;56.40;;;;;;6104647;23;20017;-81
2023/02/28 15:29:50;;;;;;;7.65;4.78;;;8.00;57.50;;;;;;6104729;23;20073;-81
2023/02/28 15:32:32;;;;;;;7.70;5.50;;;8.00;59.70;;;;;;6129781;23;20122;-81
2023/02/28 15:35:16;;;;;;;10.07;6.18;;;7.80;60.80;;;;;;6130603;23;20350;-81
2023/02/28 15:37:52;;;;;;;9.43;6.53;;;7.70;61.60;;;;;;6130834;23;20133;-81
2023/02/28 15:40:37;;;;;;;7.82;6.28;;;7.60;62.10;;;;;;6130382;23;20089;-81
2023/02/28 15:43:15;;;;;;;12.43;7.43;;;7.50;62.80;;;;;;6130736;23;19998;-81
2023/02/28 15:45:46;;;;;;;15.57;7.90;;;7.40;63.30;;;;;;6104384;23;20458;-81
2023/02/28 15:48:24;;;;;;;17.40;7.50;;;7.40;63.60;;;;;;6104432;23;20002;-80
2023/02/28 15:51:31;;;;;;;14.23;7.97;;;7.30;64.10;;;;;;6103892;23;20443;-81
2023/02/28 15:54:07;;;;;;;14.73;7.22;;;7.30;64.10;;;;;;6077624;23;20077;-81
2023/02/28 15:56:45;;;;;;;12.43;7.10;;;7.30;64.40;;;;;;6130458;23;19998;-81
2023/02/28 15:59:20;;;;;;;17.10;7.85;;;7.20;64.80;;;;;;6104067;23;20407;-81
2023/02/28 16:01:47;;;;;;;15.75;8.10;;;7.30;65.10;;;;;;6130412;23;20010;-81
2023/02/28 16:04:18;;;;;;;15.23;8.48;;;7.20;65.20;;;;;;6130118;23;20370;-81
2023/02/28 16:06:45;;;;;;;9.07;6.97;;;7.20;65.40;;;;;;6130067;23;20009;-81
2023/02/28 16:09:16;;;;;;;13.07;8.60;;;7.20;65.60;;;;;;6130240;23;20006;-81
2023/02/28 16:11:50;;;;;;;14.13;8.48;;;7.20;65.70;;;;;;6104147;23;20006;-81
2023/02/28 16:14:22;;;;;;;15.60;8.40;;;7.30;65.50;;;;;;6103917;23;20018;-81
2023/02/28 16:16:54;;;;;;;15.48;9.70;;;7.30;65.30;;;;;;6104119;23;20033;-81
2023/02/28 16:19:20;;;;;;;17.02;10.65;;;7.40;65.30;;;;;;6130049;23;20048;-81
2023/02/28 16:21:46;;;;;;;11.13;7.30;;;7.30;65.30;;;;;;6130087;23;20010;-81
2023/02/28 16:24:12;;;;;;;16.52;8.35;;;7.30;65.20;;;;;;6130532;23;20006;-81
2023/02/28 16:26:45;;;;;;;17.05;9.57;;;7.30;65.50;;;;;;6130087;23;20088;-82
2023/02/28 16:29:18;;;;;;;14.07;9.48;;;7.20;66.00;;;;;;6128305;23;20006;-81
2023/02/28 16:31:44;;;;;;;14.35;9.57;;;7.20;66.40;;;;;;6117429;23;20018;-82
2023/02/28 16:34:10;;;;;;;17.60;10.63;;;7.20;66.50;;;;;;6129161;23;20044;-79
2023/02/28 16:36:35;;;;;;;19.98;10.20;;;7.20;66.50;;;;;;6127694;23;20072;-82
2023/02/28 16:39:02;;;;;;;17.45;9.95;;;7.10;66.90;;;;;;6129452;23;20006;-86
2023/02/28 16:41:29;;;;;;;22.40;11.68;;;7.10;66.90;;;;;;6129241;23;20339;-82
2023/02/28 16:43:58;;;;;;;21.40;13.02;;;7.20;66.90;;;;;;6127211;23;20009;-84
2023/02/28 16:46:33;;;;;;;19.77;10.27;;;7.20;67.00;;;;;;6129015;23;20148;-83
2023/02/28 16:48:59;;;;;;;19.38;11.07;;;7.20;67.10;;;;;;6127110;23;20009;-81
2023/02/28 16:51:25;;;;;;;18.27;10.30;;;7.20;67.00;;;;;;6129271;23;20010;-81
2023/02/28 16:53:51;;;;;;;16.55;9.07;;;7.20;67.30;;;;;;6129283;23;20002;-84
2023/02/28 16:56:23;;;;;;;17.70;10.23;;;7.20;67.50;;;;;;6122715;23;19998;-84
2023/02/28 16:58:50;;;;;;;15.27;10.00;;;7.20;67.30;;;;;;6126643;23;20056;-85
2023/02/28 17:01:21;;;;;;;18.75;12.05;;;7.20;67.50;;;;;;6127906;23;20025;-85
2023/02/28 17:03:47;;;;;;;17.65;9.95;;;7.20;67.60;;;;;;6129210;23;20080;-84
2023/02/28 17:06:27;;;;;;;21.05;11.73;;;7.20;67.60;;;;;;6127809;23;20071;-84
2023/02/28 17:08:54;;;;;;;19.48;11.15;;;7.20;67.40;;;;;;6128304;23;20006;-84
2023/02/28 17:11:20;;;;;;;20.13;9.52;;;7.10;67.70;;;;;;6126944;23;20089;-84
2023/02/28 17:13:47;;;;;;;24.23;11.80;;;7.20;67.80;;;;;;6129132;23;20010;-85
2023/02/28 17:16:27;;;;;;;23.67;13.95;;;7.20;67.80;;;;;;6128748;23;20009;-84
2023/02/28 17:18:54;;;;;;;;;;;7.20;67.70;;;;;;6129600;23;20057;-84
2023/02/28 17:21:20;;;;;;;20.90;10.50;;;7.20;67.80;;;;;;6129218;23;19901;-84
2023/02/28 17:23:45;;;;;;;21.77;10.85;;;7.20;68.00;;;;;;6127222;23;20009;-85
2023/02/28 17:26:21;;;;;;;20.30;11.65;;;7.20;68.10;;;;;;6127770;23;20080;-84
2023/02/28 17:28:48;;;;;;;17.33;11.00;;;7.10;68.50;;;;;;6127101;23;20014;-82
2023/02/28 17:31:14;;;;;;;20.20;11.48;;;7.00;68.70;;;;;;6126877;23;20018;-84
2023/02/28 17:33:39;;;;;;;21.50;12.93;;;7.10;68.80;;;;;;6129137;23;20014;-82
2023/02/28 17:36:06;;;;;;;22.13;11.60;;;7.10;68.90;;;;;;6130309;23;19998;-81
2023/02/28 17:38:31;;;;;;;23.17;13.02;;;7.10;69.00;;;;;;6128138;23;20387;-82
2023/02/28 17:40:57;;;;;;;21.30;13.15;;;7.10;69.40;;;;;;6128530;23;20128;-82
2023/02/28 17:43:24;;;;;;;20.23;11.18;;;7.00;69.50;;;;;;6131828;23;20002;-82
2023/02/28 17:45:51;;;;;;;27.08;15.82;;;7.00;69.70;;;;;;6126714;23;20002;-82
2023/02/28 17:48:16;;;;;;;77.45;41.42;;;7.00;69.60;;;;;;6130395;23;20066;-82
2023/02/28 17:50:42;;;;;;;24.83;16.85;;;7.10;69.80;;;;;;6125962;23;20616;-82
2023/02/28 17:53:08;;;;;;;24.23;13.10;;;7.10;69.70;;;;;;6129904;23;19998;-83
2023/02/28 17:55:34;;;;;;;23.05;13.07;;;7.10;69.90;;;;;;6129903;23;20010;-82
2023/02/28 17:58:00;;;;;;;24.80;13.68;;;7.10;69.70;;;;;;6128839;23;19998;-82
2023/02/28 18:00:26;;;;;;;34.63;15.45;;;7.10;69.80;;;;;;6129428;23;20549;-82
2023/02/28 18:02:52;;;;;;;36.47;18.20;;;7.20;69.70;;;;;;6133457;23;19998;-82
2023/02/28 18:05:18;;;;;;;36.03;17.38;;;7.10;70.10;;;;;;6135315;23;20002;-77
2023/02/28 18:07:43;;;;;;;41.80;18.77;;;7.10;70.20;;;;;;6126688;23;20017;-80
2023/02/28 18:10:18;;;;;;;30.73;16.42;;;7.20;69.90;;;;;;6128361;23;20013;-78
2023/02/28 18:12:48;;;;;;;30.15;15.30;;;7.10;70.40;;;;;;6130840;23;20009;-79
2023/02/28 18:15:15;;;;;;;26.88;13.90;;;7.10;70.90;;;;;;6130107;23;20399;-83
2023/02/28 18:17:41;;;;;;;27.27;14.88;;;7.00;71.10;;;;;;6129431;23;19998;-82
2023/02/28 18:20:09;;;;;;;23.40;11.52;;;6.90;71.80;;;;;;6128385;23;20009;-84
2023/02/28 18:22:35;;;;;;;22.45;12.80;;;7.00;71.80;;;;;;6126778;23;20064;-78
2023/02/28 18:25:02;;;;;;;21.02;12.23;;;7.00;72.20;;;;;;6128876;23;20391;-78
2023/02/28 18:27:31;;;;;;;33.55;16.13;;;7.00;72.40;;;;;;6126939;23;20014;-77
2023/02/28 18:29:56;;;;;;;23.75;12.93;;;7.00;72.60;;;;;;6129319;23;20093;-83
2023/02/28 18:32:22;;;;;;;31.92;16.10;;;7.00;72.60;;;;;;6129331;23;20018;-77
2023/02/28 18:34:47;;;;;;;31.48;15.88;;;7.00;72.30;;;;;;6130216;23;20002;-77
2023/02/28 18:37:14;;;;;;;25.30;13.52;;;7.00;72.60;;;;;;6131709;23;20021;-77
2023/02/28 18:39:40;;;;;;;25.83;12.75;;;7.00;73.50;;;;;;6130832;23;20395;-77
2023/02/28 18:42:07;;;;;;;26.75;15.02;;;6.90;74.50;;;;;;6130827;23;20006;-79
2023/02/28 18:44:36;;;;;;;24.90;13.75;;;6.70;76.00;;;;;;6128921;23;20069;-79